createdAt,value
2023-03-17T00:00:32.812Z,24.08
2023-03-17T03:44:39.279Z,23.93
2023-03-17T03:48:39.486Z,23.93
2023-03-17T03:52:39.712Z,23.93
2023-03-17T03:56:39.876Z,23.91
2023-03-17T04:00:40.086Z,23.92
2023-03-17T04:04:40.315Z,23.93
2023-03-17T04:08:40.539Z,23.92
2023-03-17T04:12:40.745Z,23.93
2023-03-17T04:16:43.280Z,23.92
2023-03-17T04:20:40.668Z,23.92
2023-03-17T04:24:40.650Z,23.92
2023-03-17T04:28:40.582Z,23.92
2023-03-17T04:32:40.664Z,23.90
2023-03-17T04:36:40.520Z,23.90
2023-03-17T04:40:40.497Z,23.90
2023-03-17T04:44:40.538Z,23.91
2023-03-17T04:48:40.710Z,23.90
2023-03-17T04:52:40.928Z,23.89
2023-03-17T04:56:40.908Z,23.89
2023-03-17T05:00:40.916Z,23.90
2023-03-17T05:04:40.807Z,23.89
2023-03-17T05:08:40.762Z,23.89
2023-03-17T05:12:40.766Z,23.90
2023-03-17T05:16:40.746Z,23.90
2023-03-17T05:20:40.809Z,23.91
2023-03-17T05:24:40.764Z,23.89
2023-03-17T05:28:40.772Z,23.89
2023-03-17T05:32:40.739Z,23.89
2023-03-17T05:36:40.678Z,23.90
2023-03-17T05:40:40.621Z,23.89
2023-03-17T05:44:40.606Z,23.89
2023-03-17T05:48:40.683Z,23.89
2023-03-17T05:52:40.825Z,23.89
2023-03-17T05:56:40.786Z,23.88
2023-03-17T07:52:43.109Z,24.19
2023-03-17T13:16:47.697Z,24.25
2023-03-17T13:32:48.240Z,24.23
2023-03-17T13:36:48.150Z,24.23
2023-03-17T13:40:48.711Z,24.24
2023-03-17T13:44:48.557Z,24.23
2023-03-17T13:48:49.207Z,24.23
2023-03-17T13:52:49.220Z,24.22
2023-03-17T13:56:49.274Z,24.23
2023-03-17T14:00:49.831Z,24.24
2023-03-17T14:04:49.537Z,24.24
2023-03-17T14:08:49.749Z,24.24
2023-03-17T14:12:51.381Z,24.24
2023-03-17T14:16:50.516Z,24.24
2023-03-17T14:20:50.724Z,24.23
2023-03-17T14:24:51.746Z,24.23
2023-03-17T14:28:50.736Z,24.17
2023-03-17T14:32:51.001Z,24.16
2023-03-17T14:36:51.275Z,24.11
2023-03-17T14:40:50.825Z,24.19
2023-03-17T14:44:50.787Z,24.27
2023-03-17T14:48:50.799Z,24.31
2023-03-17T14:52:50.738Z,24.37
2023-03-17T14:56:50.708Z,24.40
2023-03-17T15:00:50.638Z,24.43
2023-03-17T15:04:50.765Z,24.42
2023-03-17T15:08:50.585Z,24.43
2023-03-17T15:12:50.742Z,24.44
2023-03-17T15:16:50.867Z,24.47
2023-03-17T15:20:50.769Z,24.47
2023-03-17T15:24:51.248Z,24.47
2023-03-17T15:28:51.244Z,24.50
2023-03-17T15:32:51.315Z,24.51
2023-03-17T15:36:51.291Z,24.50
2023-03-17T15:40:50.882Z,24.54
2023-03-17T15:44:51.254Z,24.55
2023-03-17T15:48:50.975Z,24.04
2023-03-17T15:52:51.199Z,23.49
2023-03-17T15:56:51.218Z,23.36
2023-03-17T16:00:51.766Z,23.19
2023-03-17T16:04:51.576Z,23.03
2023-03-17T16:08:51.560Z,22.90
2023-03-17T16:12:51.511Z,23.01
2023-03-17T16:16:51.762Z,23.26
2023-03-17T16:20:51.421Z,23.53
2023-03-17T19:16:54.498Z,24.17
2023-03-17T19:20:54.672Z,24.17
2023-03-17T19:24:54.862Z,24.12
2023-03-17T19:28:55.064Z,24.10
2023-03-17T19:44:55.919Z,24.07
2023-03-17T19:48:55.875Z,24.05
2023-03-17T19:52:55.868Z,24.05
2023-03-17T19:56:56.326Z,24.06
2023-03-17T20:00:55.777Z,24.06
2023-03-17T20:04:55.821Z,24.04
2023-03-17T20:08:55.714Z,24.03
2023-03-17T20:12:55.868Z,24.03
2023-03-17T20:16:55.735Z,24.04
2023-03-17T20:20:55.702Z,24.03
2023-03-17T20:24:55.684Z,24.04
2023-03-17T20:28:55.631Z,24.04
2023-03-17T20:32:55.690Z,24.03
2023-03-17T20:36:55.553Z,24.03
2023-03-17T20:40:55.623Z,24.03
2023-03-17T20:44:55.824Z,24.01
2023-03-17T20:48:56.029Z,24.01
2023-03-17T20:52:55.999Z,23.98
2023-03-17T20:56:55.993Z,23.99
2023-03-17T21:00:55.917Z,23.97
2023-03-17T21:04:55.884Z,23.96
2023-03-17T21:08:55.846Z,23.98
2023-03-17T21:12:55.837Z,23.98
2023-03-17T21:16:55.979Z,23.98
2023-03-17T21:20:55.950Z,23.99
2023-03-17T21:24:55.921Z,23.98
2023-03-17T21:28:55.899Z,23.95
2023-03-17T21:32:55.893Z,23.94
2023-03-17T21:36:56.004Z,23.92
2023-03-17T21:40:55.994Z,23.92
2023-03-17T21:44:55.973Z,23.91
2023-03-17T21:48:55.897Z,23.92
2023-03-17T21:56:55.817Z,23.90
2023-03-17T22:00:55.882Z,23.90
2023-03-17T22:04:56.000Z,23.89
2023-03-17T22:08:55.970Z,23.88
2023-03-17T22:12:55.928Z,23.88
2023-03-17T22:16:55.982Z,23.88
2023-03-17T22:20:55.870Z,23.87
2023-03-17T22:24:55.823Z,23.87
2023-03-17T22:28:55.822Z,23.86
2023-03-17T22:32:56.048Z,23.86
2023-03-17T22:36:55.881Z,23.85
2023-03-17T22:40:55.843Z,23.84
2023-03-17T22:44:55.802Z,23.84
2023-03-17T22:48:55.816Z,23.84
2023-03-17T22:52:55.735Z,23.84
2023-03-17T22:56:55.694Z,23.84
2023-03-17T23:00:55.920Z,23.83
2023-03-17T23:04:56.090Z,23.82
2023-03-17T23:08:56.285Z,23.82
2023-03-17T23:12:56.410Z,23.82
2023-03-17T23:16:56.642Z,23.81
2023-03-17T23:20:56.780Z,23.81
2023-03-17T23:24:56.908Z,23.81
2023-03-17T23:28:57.051Z,23.80
2023-03-17T23:32:57.250Z,23.80
2023-03-17T23:36:57.359Z,23.79
2023-03-17T23:40:57.513Z,23.80
2023-03-17T23:44:57.690Z,23.82
2023-03-17T23:48:57.874Z,23.84
2023-03-17T23:52:58.118Z,23.85
2023-03-17T23:56:58.087Z,23.88
